createdAt,value
2023-01-02T00:02:03.579Z,6.50
2023-01-02T00:07:07.200Z,6.40
2023-01-02T00:12:10.814Z,6.00
2023-01-02T00:17:14.434Z,5.90
2023-01-02T00:22:17.953Z,5.60
2023-01-02T00:27:21.577Z,5.80
2023-01-02T00:32:25.192Z,5.10
2023-01-02T00:37:28.698Z,5.40
2023-01-02T00:42:32.225Z,5.00
2023-01-02T00:47:35.952Z,5.00
2023-01-02T00:52:39.352Z,6.90
2023-01-02T00:57:45.425Z,6.70
2023-01-02T01:02:49.097Z,6.90
2023-01-02T01:07:54.611Z,5.40
2023-01-02T01:12:58.122Z,5.90
2023-01-02T01:18:01.968Z,6.50
2023-01-02T01:23:05.767Z,5.60
2023-01-02T01:28:09.281Z,5.20
2023-01-02T01:33:12.901Z,5.70
2023-01-02T01:38:16.414Z,8.60
2023-01-02T01:43:43.597Z,5.70
2023-01-02T01:48:50.481Z,5.60
2023-01-02T01:54:00.553Z,6.50
2023-01-02T01:59:05.191Z,10.10
2023-01-02T02:04:10.878Z,7.50
2023-01-02T02:09:19.402Z,7.00
2023-01-02T02:14:22.803Z,7.90
2023-01-02T02:19:59.196Z,6.20
2023-01-02T02:25:30.250Z,5.60
2023-01-02T02:30:43.599Z,5.40
2023-01-02T02:36:07.697Z,5.10
2023-01-02T02:42:05.176Z,6.50
2023-01-02T02:47:17.607Z,5.80
2023-01-02T02:52:29.313Z,5.30
2023-01-02T02:57:33.755Z,6.60
2023-01-02T03:02:37.589Z,7.60
2023-01-02T03:08:02.188Z,7.80
2023-01-02T03:13:41.626Z,6.90
2023-01-02T03:19:09.528Z,8.00
2023-01-02T03:24:18.678Z,7.70
2023-01-02T03:29:48.504Z,7.70
2023-01-02T03:34:54.056Z,6.80
2023-01-02T03:40:03.114Z,6.90
2023-01-02T03:45:14.931Z,6.50
2023-01-02T03:50:45.779Z,7.00
2023-01-02T03:56:00.156Z,7.30
2023-01-02T04:01:12.465Z,7.70
2023-01-02T04:06:21.936Z,8.30
2023-01-02T04:11:27.715Z,8.60
2023-01-02T04:16:36.686Z,7.40
2023-01-02T04:21:42.208Z,9.00
2023-01-02T04:26:51.656Z,8.80
2023-01-02T04:32:22.823Z,7.30
2023-01-02T04:37:41.389Z,6.00
2023-01-02T04:42:45.215Z,7.20
2023-01-02T04:47:49.751Z,7.30
2023-01-02T04:52:53.275Z,6.10
2023-01-02T04:57:58.143Z,7.60
2023-01-02T05:03:05.546Z,6.40
2023-01-02T05:08:15.662Z,6.50
2023-01-02T05:13:19.921Z,7.20
2023-01-02T05:18:23.647Z,7.60
2023-01-02T05:23:45.595Z,6.50
2023-01-02T05:28:53.462Z,7.40
2023-01-02T05:33:59.747Z,7.50
2023-01-02T05:39:03.512Z,6.20
2023-01-02T05:44:11.304Z,7.90
2023-01-02T05:49:14.743Z,8.90
2023-01-02T05:54:18.258Z,8.30
2023-01-02T05:59:21.974Z,8.60
2023-01-02T06:04:25.490Z,8.20
2023-01-02T06:09:29.008Z,9.30
2023-01-02T06:14:32.639Z,8.90
2023-01-02T06:19:36.357Z,7.30
2023-01-02T06:24:40.069Z,7.60
2023-01-02T06:29:43.582Z,9.20
2023-01-02T06:34:47.210Z,8.90
2023-01-02T06:39:50.719Z,9.30
2023-01-02T06:44:54.234Z,11.30
2023-01-02T06:49:58.362Z,9.80
2023-01-02T06:55:01.781Z,11.30
2023-01-02T07:00:05.903Z,11.80
2023-01-02T07:05:11.271Z,10.40
2023-01-02T07:10:14.778Z,11.20
2023-01-02T07:15:18.715Z,10.90
2023-01-02T07:20:22.528Z,11.10
2023-01-02T07:25:26.043Z,10.70
2023-01-02T07:30:29.611Z,10.90
2023-01-02T07:35:33.383Z,7.80
2023-01-02T07:40:37.100Z,9.70
2023-01-02T07:45:44.919Z,9.80
2023-01-02T07:50:51.505Z,10.90
2023-01-02T07:55:56.967Z,11.60
2023-01-02T08:01:09.833Z,11.00
2023-01-02T08:06:15.596Z,10.50
2023-01-02T08:11:22.277Z,10.20
2023-01-02T08:16:25.915Z,10.20
2023-01-02T08:21:29.292Z,10.40
2023-01-02T08:26:33.007Z,10.20
2023-01-02T08:31:41.813Z,12.00
2023-01-02T08:36:47.219Z,10.60
2023-01-02T08:41:50.829Z,10.80
2023-01-02T08:46:54.238Z,8.80
2023-01-02T08:51:57.757Z,10.30
2023-01-02T08:57:01.884Z,11.50
2023-01-02T09:02:05.618Z,10.30
2023-01-02T09:07:09.538Z,10.80
2023-01-02T09:12:13.046Z,12.20
2023-01-02T09:17:16.668Z,9.90
2023-01-02T09:22:20.387Z,8.50
2023-01-02T09:27:23.900Z,7.50
2023-01-02T09:32:27.426Z,7.30
2023-01-02T09:37:30.946Z,6.60
2023-01-02T09:42:34.752Z,8.20
2023-01-02T09:47:41.867Z,7.60
2023-01-02T09:52:54.810Z,8.20
2023-01-02T09:58:18.273Z,8.20
2023-01-02T10:03:40.681Z,7.70
2023-01-02T10:09:14.555Z,8.00
2023-01-02T10:14:44.754Z,7.60
2023-01-02T10:19:54.767Z,7.80
2023-01-02T10:25:19.074Z,7.50
2023-01-02T10:30:24.463Z,7.10
2023-01-02T10:35:47.612Z,7.50
2023-01-02T10:40:52.067Z,6.80
2023-01-02T10:45:56.072Z,8.20
2023-01-02T10:51:04.731Z,7.90
2023-01-02T10:56:20.658Z,7.50
2023-01-02T11:01:24.455Z,7.00
2023-01-02T11:06:39.461Z,8.10
2023-01-02T11:11:51.234Z,6.80
2023-01-02T11:16:58.839Z,7.10
2023-01-02T11:22:02.560Z,6.90
2023-01-02T11:27:06.082Z,6.50
2023-01-02T11:32:23.013Z,7.00
2023-01-02T11:37:27.749Z,7.70
2023-01-02T11:43:07.411Z,7.90
2023-01-02T11:48:15.751Z,6.40
2023-01-02T11:53:29.499Z,6.20
2023-01-02T11:58:45.402Z,6.60
2023-01-02T12:03:49.256Z,6.20
2023-01-02T12:08:58.997Z,6.70
2023-01-02T12:14:18.887Z,5.90
2023-01-02T12:19:47.183Z,5.80
2023-01-02T12:25:02.375Z,5.90
2023-01-02T12:30:13.735Z,6.20
2023-01-02T12:35:33.261Z,5.90
2023-01-02T12:40:50.196Z,7.20
2023-01-02T12:46:11.567Z,7.90
2023-01-02T12:51:41.776Z,10.00
2023-01-02T12:56:51.552Z,7.00
2023-01-02T13:02:25.625Z,6.20
2023-01-02T13:07:36.040Z,6.70
2023-01-02T13:12:40.067Z,5.90
2023-01-02T13:17:51.269Z,6.60
2023-01-02T13:23:13.108Z,6.40
2023-01-02T13:28:17.851Z,7.70
2023-01-02T13:33:30.282Z,6.30
2023-01-02T13:38:36.788Z,5.50
2023-01-02T13:43:40.483Z,6.00
2023-01-02T13:48:47.788Z,5.80
2023-01-02T13:53:53.054Z,6.20
2023-01-02T13:58:56.665Z,6.60
2023-01-02T14:04:13.385Z,6.30
2023-01-02T14:09:21.204Z,6.40
2023-01-02T14:14:52.062Z,6.10
2023-01-02T14:20:20.218Z,6.10
2023-01-02T14:25:24.697Z,6.00
2023-01-02T14:30:30.971Z,5.40
2023-01-02T14:35:39.815Z,5.80
2023-01-02T14:40:44.886Z,6.60
2023-01-02T14:45:53.102Z,5.40
2023-01-02T14:51:01.858Z,6.80
2023-01-02T14:56:16.917Z,6.10
2023-01-02T15:01:43.844Z,6.30
2023-01-02T15:07:09.913Z,6.90
2023-01-02T15:12:43.756Z,6.90
2023-01-02T15:17:49.701Z,6.90
2023-01-02T15:22:54.919Z,6.80
2023-01-02T15:27:58.396Z,6.10
2023-01-02T15:33:02.241Z,4.60
2023-01-02T15:43:41.912Z,6.30
2023-01-02T15:48:46.241Z,6.00
2023-01-02T15:59:01.572Z,8.00
2023-01-02T16:04:05.815Z,8.20
2023-01-02T16:09:20.432Z,6.80
2023-01-02T16:14:53.592Z,7.40
2023-01-02T16:20:00.577Z,7.10
2023-01-02T16:25:12.193Z,7.30
2023-01-02T16:30:38.081Z,7.30
2023-01-02T16:36:00.599Z,7.90
2023-01-02T16:41:12.114Z,6.80
2023-01-02T16:46:16.572Z,7.00
2023-01-02T16:51:20.665Z,7.00
2023-01-02T16:56:24.606Z,8.10
2023-01-02T17:01:28.219Z,7.60
2023-01-02T17:06:31.943Z,7.30
2023-01-02T17:11:35.755Z,6.80
2023-01-02T17:16:39.252Z,7.80
2023-01-02T17:21:42.890Z,7.40
2023-01-02T17:26:47.426Z,7.20
2023-01-02T17:31:50.871Z,9.10
2023-01-02T17:36:55.502Z,7.30
2023-01-02T17:41:58.998Z,8.50
2023-01-02T17:47:30.799Z,8.40
2023-01-02T17:57:30.439Z,7.50
2023-01-02T18:02:34.259Z,6.90
2023-01-02T18:07:38.180Z,8.50
2023-01-02T18:12:43.033Z,6.90
2023-01-02T18:17:46.538Z,7.10
2023-01-02T18:22:51.127Z,7.60
2023-01-02T18:28:21.237Z,7.90
2023-01-02T18:33:27.065Z,6.90
2023-01-02T18:38:36.750Z,7.20
2023-01-02T18:43:41.807Z,6.40
2023-01-02T18:48:45.938Z,5.70
2023-01-02T18:59:13.038Z,5.80
2023-01-02T19:04:28.307Z,5.10
2023-01-02T19:09:34.894Z,5.50
2023-01-02T19:14:41.619Z,5.20
2023-01-02T19:19:46.048Z,5.00
2023-01-02T19:24:50.187Z,5.30
2023-01-02T19:29:54.305Z,5.10
2023-01-02T19:40:19.757Z,4.80
2023-01-02T19:45:28.158Z,4.30
2023-01-02T19:50:32.334Z,5.40
2023-01-02T19:55:36.970Z,4.90
2023-01-02T20:00:40.584Z,5.20
2023-01-02T20:05:44.107Z,5.90
2023-01-02T20:15:51.624Z,4.70
2023-01-02T20:20:55.277Z,6.20
2023-01-02T20:25:58.783Z,2.80
2023-01-02T20:31:02.542Z,5.40
2023-01-02T20:36:13.178Z,5.00
2023-01-02T20:41:17.113Z,4.10
2023-01-02T20:46:20.872Z,5.20
2023-01-02T20:51:24.459Z,4.80
2023-01-02T20:56:29.101Z,5.20
2023-01-02T21:01:32.689Z,5.00
2023-01-02T21:06:36.735Z,4.90
2023-01-02T21:11:40.354Z,4.60
2023-01-02T21:16:43.922Z,5.70
2023-01-02T21:21:47.586Z,5.80
2023-01-02T21:26:51.109Z,4.80
2023-01-02T21:31:54.762Z,6.10
2023-01-02T21:37:00.182Z,5.20
2023-01-02T21:42:16.134Z,5.40
2023-01-02T21:47:19.723Z,6.10
2023-01-02T21:52:23.224Z,5.50
2023-01-02T21:58:02.630Z,5.40
2023-01-02T22:02:53.672Z,6.30
2023-01-02T22:07:58.168Z,5.30
2023-01-02T22:13:01.868Z,5.10
2023-01-02T22:18:05.592Z,5.20
2023-01-02T22:23:09.198Z,5.20
2023-01-02T22:28:12.713Z,5.10
2023-01-02T22:33:16.304Z,5.60
2023-01-02T22:38:19.949Z,5.10
2023-01-02T22:43:24.853Z,4.70
2023-01-02T22:48:32.845Z,5.70
2023-01-02T22:53:37.675Z,5.20
2023-01-02T22:58:41.799Z,3.70
2023-01-02T23:03:46.917Z,2.90
2023-01-02T23:08:51.735Z,3.70
2023-01-02T23:13:56.951Z,2.00
2023-01-02T23:19:15.939Z,1.60
2023-01-02T23:24:27.173Z,1.10
2023-01-02T23:29:30.842Z,0.90
2023-01-02T23:34:34.256Z,0.60
2023-01-02T23:39:37.873Z,0.40
2023-01-02T23:44:42.314Z,0.60
2023-01-02T23:54:49.154Z,0.40
2023-01-02T23:59:52.654Z,0.20
